createdAt,value
2019-05-26T00:00:03.475Z,14.8
2019-05-26T00:01:03.138Z,14.8
2019-05-26T00:02:03.062Z,14.8
2019-05-26T00:03:03.573Z,14.7
2019-05-26T00:04:02.836Z,14.7
2019-05-26T00:05:02.446Z,14.7
2019-05-26T00:06:03.241Z,14.7
2019-05-26T00:07:02.821Z,14.6
2019-05-26T00:08:02.569Z,14.6
2019-05-26T00:09:03.528Z,14.6
2019-05-26T00:10:03.118Z,14.6
2019-05-26T00:11:01.492Z,14.6
2019-05-26T00:12:03.063Z,14.6
2019-05-26T00:13:02.732Z,14.6
2019-05-26T00:14:03.514Z,14.6
2019-05-26T00:15:03.115Z,14.6
2019-05-26T00:16:02.836Z,14.6
2019-05-26T00:17:03.282Z,14.6
2019-05-26T00:18:02.934Z,14.5
2019-05-26T00:19:02.435Z,14.5
2019-05-26T00:20:03.502Z,14.5
2019-05-26T00:21:03.011Z,14.4
2019-05-26T00:22:02.477Z,14.5
2019-05-26T00:23:03.202Z,14.4
2019-05-26T00:24:02.640Z,14.4
2019-05-26T00:25:03.427Z,14.4
2019-05-26T00:26:02.789Z,14.4
2019-05-26T00:27:02.623Z,14.4
2019-05-26T00:28:03.162Z,14.4
2019-05-26T00:29:02.671Z,14.4
2019-05-26T00:30:03.439Z,14.4
2019-05-26T00:31:02.926Z,14.4
2019-05-26T00:32:02.675Z,14.3
2019-05-26T00:33:03.471Z,14.3
2019-05-26T00:34:02.952Z,14.3
2019-05-26T00:35:02.620Z,14.3
2019-05-26T00:36:03.064Z,14.3
2019-05-26T00:37:02.836Z,14.3
2019-05-26T00:38:03.410Z,14.3
2019-05-26T00:39:03.166Z,14.3
2019-05-26T00:40:03.012Z,14.3
2019-05-26T00:41:02.530Z,14.2
2019-05-26T00:42:03.028Z,14.2
2019-05-26T00:43:02.866Z,14.2
2019-05-26T00:44:03.252Z,14.2
2019-05-26T00:45:03.308Z,14.2
2019-05-26T00:46:03.309Z,14.2
2019-05-26T00:47:03.261Z,14.2
2019-05-26T00:48:02.934Z,14.2
2019-05-26T00:49:02.644Z,14.2
2019-05-26T00:50:03.323Z,14.2
2019-05-26T00:51:03.127Z,14.2
2019-05-26T00:52:02.472Z,14.2
2019-05-26T00:53:03.155Z,14.1
2019-05-26T00:54:02.688Z,14.1
2019-05-26T00:55:03.569Z,14.2
2019-05-26T00:56:03.148Z,14.1
2019-05-26T00:57:02.838Z,14.1
2019-05-26T00:58:02.602Z,14.1
2019-05-26T00:59:03.182Z,14.1
2019-05-26T01:00:02.839Z,14
2019-05-26T01:01:03.460Z,13.9
2019-05-26T01:02:02.969Z,14
2019-05-26T01:03:02.771Z,14
2019-05-26T01:04:03.286Z,14.1
2019-05-26T01:05:03.197Z,14
2019-05-26T01:06:02.668Z,14.1
2019-05-26T01:07:03.316Z,14
2019-05-26T01:08:07.188Z,14.1
2019-05-26T01:09:02.577Z,14
2019-05-26T01:10:03.625Z,14
2019-05-26T01:11:02.999Z,14
2019-05-26T01:12:02.557Z,13.9
2019-05-26T01:13:03.033Z,14
2019-05-26T01:14:02.606Z,13.9
2019-05-26T01:15:02.733Z,13.9
2019-05-26T01:16:03.013Z,13.9
2019-05-26T01:17:03.343Z,13.9
2019-05-26T01:18:04.195Z,13.9
2019-05-26T01:19:02.570Z,13.9
2019-05-26T01:20:03.173Z,13.9
2019-05-26T01:21:02.654Z,13.9
2019-05-26T01:22:02.891Z,13.9
2019-05-26T01:23:03.201Z,13.9
2019-05-26T01:24:02.737Z,13.9
2019-05-26T01:25:03.281Z,13.9
2019-05-26T01:26:03.109Z,13.9
2019-05-26T01:27:02.766Z,13.9
2019-05-26T01:28:03.511Z,13.9
2019-05-26T01:29:03.534Z,13.9
2019-05-26T01:30:02.755Z,13.9
2019-05-26T01:31:03.315Z,13.9
2019-05-26T01:32:02.841Z,13.9
2019-05-26T01:33:02.501Z,13.9
2019-05-26T01:34:02.840Z,13.9
2019-05-26T01:35:02.913Z,13.9
2019-05-26T01:36:03.308Z,13.9
2019-05-26T01:37:03.004Z,13.9
2019-05-26T01:38:02.835Z,13.9
2019-05-26T01:39:02.637Z,13.9
2019-05-26T01:40:02.673Z,13.9
2019-05-26T01:41:02.531Z,13.9
2019-05-26T01:42:03.271Z,13.9
2019-05-26T01:43:02.412Z,13.9
2019-05-26T01:44:03.247Z,13.9
2019-05-26T01:45:03.004Z,13.9
2019-05-26T01:46:02.512Z,13.9
2019-05-26T01:47:03.247Z,13.8
2019-05-26T01:48:02.901Z,13.8
2019-05-26T01:49:02.485Z,13.8
2019-05-26T01:50:03.323Z,13.8
2019-05-26T01:51:02.981Z,13.8
2019-05-26T01:52:03.004Z,13.7
2019-05-26T01:53:02.965Z,13.7
2019-05-26T01:54:02.554Z,13.7
2019-05-26T01:55:03.351Z,13.7
2019-05-26T01:56:02.746Z,13.8
2019-05-26T01:57:03.382Z,13.8
2019-05-26T01:58:03.050Z,13.8
2019-05-26T01:59:02.906Z,13.8
2019-05-26T02:00:02.472Z,13.8
2019-05-26T02:01:03.269Z,13.8
2019-05-26T02:02:03.022Z,13.8
2019-05-26T02:03:03.335Z,13.8
2019-05-26T02:04:02.962Z,13.8
2019-05-26T02:05:02.546Z,13.9
2019-05-26T02:06:03.275Z,13.9
2019-05-26T02:07:02.976Z,13.9
2019-05-26T02:08:02.430Z,13.9
2019-05-26T02:09:03.245Z,13.9
2019-05-26T02:10:02.967Z,13.9
2019-05-26T02:11:03.220Z,13.9
2019-05-26T02:12:03.321Z,13.9
2019-05-26T02:13:02.760Z,13.9
2019-05-26T02:14:02.302Z,13.9
2019-05-26T02:15:03.122Z,13.8
2019-05-26T02:16:02.827Z,13.8
2019-05-26T02:17:03.150Z,13.8
2019-05-26T02:18:03.044Z,13.8
2019-05-26T02:19:02.623Z,13.8
2019-05-26T02:20:03.325Z,13.8
2019-05-26T02:21:01.757Z,13.8
2019-05-26T02:22:03.513Z,13.8
2019-05-26T02:23:03.149Z,13.8
2019-05-26T02:24:02.954Z,13.6
2019-05-26T02:25:03.477Z,13.6
2019-05-26T02:26:03.179Z,13.7
2019-05-26T02:27:03.324Z,13.7
2019-05-26T02:28:03.044Z,13.8
2019-05-26T02:29:02.606Z,13.8
2019-05-26T02:30:02.815Z,13.7
2019-05-26T02:31:02.921Z,13.7
2019-05-26T02:32:02.459Z,13.6
2019-05-26T02:33:03.331Z,13.7
2019-05-26T02:34:02.572Z,13.7
2019-05-26T02:35:03.247Z,13.7
2019-05-26T02:36:03.137Z,13.8
2019-05-26T02:37:02.701Z,13.7
2019-05-26T02:38:03.478Z,13.7
2019-05-26T02:39:03.854Z,13.8
2019-05-26T02:40:03.452Z,13.8
2019-05-26T02:41:02.784Z,13.8
2019-05-26T02:42:02.756Z,13.7
2019-05-26T02:43:03.300Z,13.7
2019-05-26T02:44:02.830Z,13.6
2019-05-26T02:45:02.671Z,13.6
2019-05-26T02:46:02.975Z,13.6
2019-05-26T02:47:02.545Z,13.6
2019-05-26T02:48:03.152Z,13.6
2019-05-26T02:49:02.895Z,13.6
2019-05-26T02:50:02.684Z,13.6
2019-05-26T02:51:03.474Z,13.6
2019-05-26T02:52:02.786Z,13.6
2019-05-26T02:53:02.476Z,13.6
2019-05-26T02:54:03.063Z,13.6
2019-05-26T02:55:03.041Z,13.6
2019-05-26T02:56:02.567Z,13.6
2019-05-26T02:57:03.249Z,13.6
2019-05-26T02:58:02.864Z,13.6
2019-05-26T02:59:02.529Z,13.6
2019-05-26T03:00:03.011Z,13.6
2019-05-26T03:01:02.761Z,13.6
2019-05-26T03:02:05.178Z,13.5
2019-05-26T03:03:03.027Z,13.5
2019-05-26T03:04:02.597Z,13.5
2019-05-26T03:05:03.367Z,13.6
2019-05-26T03:06:02.780Z,13.6
2019-05-26T03:07:02.517Z,13.6
2019-05-26T03:08:02.986Z,13.6
2019-05-26T03:09:24.007Z,13.6
2019-05-26T03:10:03.494Z,13.6
2019-05-26T03:11:02.779Z,13.6
2019-05-26T03:12:03.308Z,13.6
2019-05-26T03:13:02.748Z,13.5
2019-05-26T03:14:03.407Z,13.6
2019-05-26T03:15:02.952Z,13.6
2019-05-26T03:16:02.948Z,13.6
2019-05-26T03:17:02.450Z,13.6
2019-05-26T03:18:02.919Z,13.5
2019-05-26T03:19:02.795Z,13.5
2019-05-26T03:20:03.297Z,13.5
2019-05-26T03:21:02.989Z,13.5
2019-05-26T03:22:02.566Z,13.5
2019-05-26T03:23:02.977Z,13.5
2019-05-26T03:24:02.411Z,13.4
2019-05-26T03:25:03.366Z,13.4
2019-05-26T03:26:03.212Z,13.4
2019-05-26T03:27:02.670Z,13.4
2019-05-26T03:28:03.382Z,13.4
2019-05-26T03:29:03.147Z,13.5
2019-05-26T03:30:03.368Z,13.4
2019-05-26T03:31:02.988Z,13.4
2019-05-26T03:32:02.780Z,13.4
2019-05-26T03:33:02.455Z,13.4
2019-05-26T03:34:03.683Z,13.4
2019-05-26T03:35:02.924Z,13.5
2019-05-26T03:36:03.242Z,13.4
2019-05-26T03:37:03.000Z,13.4
2019-05-26T03:38:02.331Z,13.5
2019-05-26T03:39:03.491Z,13.5
2019-05-26T03:40:03.025Z,13.5
2019-05-26T03:41:02.600Z,13.5
2019-05-26T03:42:03.467Z,13.4
2019-05-26T03:43:02.725Z,13.4
2019-05-26T03:44:03.135Z,13.4
2019-05-26T03:45:03.313Z,13.4
2019-05-26T03:46:02.586Z,13.4
2019-05-26T03:47:03.387Z,13.4
2019-05-26T03:48:03.027Z,13.4
2019-05-26T03:49:02.709Z,13.4
2019-05-26T03:50:03.376Z,13.4
2019-05-26T03:51:02.845Z,13.4
2019-05-26T03:52:02.712Z,13.4
2019-05-26T03:53:03.242Z,13.4
2019-05-26T03:54:02.839Z,13.4
2019-05-26T03:55:03.519Z,13.4
2019-05-26T03:56:03.303Z,13.4
2019-05-26T03:57:02.916Z,13.4
2019-05-26T03:58:02.478Z,13.4
2019-05-26T03:59:02.981Z,13.5
2019-05-26T04:00:02.685Z,13.4
2019-05-26T04:01:03.464Z,13.4
2019-05-26T04:02:02.807Z,13.4
2019-05-26T04:03:02.974Z,13.4
2019-05-26T04:04:02.488Z,13.4
2019-05-26T04:05:03.449Z,13.4
2019-05-26T04:06:02.869Z,13.5
2019-05-26T04:07:03.809Z,13.5
2019-05-26T04:08:05.785Z,13.5
2019-05-26T04:09:02.698Z,13.4
2019-05-26T04:10:06.620Z,13.4
2019-05-26T04:11:02.743Z,13.5
2019-05-26T04:12:03.391Z,13.4
2019-05-26T04:13:03.167Z,13.5
2019-05-26T04:14:02.569Z,13.5
2019-05-26T04:15:03.364Z,13.4
2019-05-26T04:16:03.157Z,13.4
2019-05-26T04:17:02.734Z,13.4
2019-05-26T04:18:03.409Z,13.4
2019-05-26T04:19:03.035Z,13.4
2019-05-26T04:20:02.736Z,13.4
2019-05-26T04:21:03.274Z,13.4
2019-05-26T04:22:02.867Z,13.5
2019-05-26T04:23:02.615Z,13.5
2019-05-26T04:24:03.148Z,13.6
2019-05-26T04:25:03.097Z,13.6
2019-05-26T04:26:03.354Z,13.6
2019-05-26T04:27:03.386Z,13.6
2019-05-26T04:28:02.828Z,13.6
2019-05-26T04:29:03.405Z,13.6
2019-05-26T04:30:02.976Z,13.6
2019-05-26T04:31:02.656Z,13.6
2019-05-26T04:32:02.936Z,13.6
2019-05-26T04:33:02.730Z,13.6
2019-05-26T04:34:02.597Z,13.7
2019-05-26T04:35:03.340Z,13.7
2019-05-26T04:36:02.648Z,13.7
2019-05-26T04:37:02.324Z,13.7
2019-05-26T04:38:03.166Z,13.6
2019-05-26T04:39:02.585Z,13.7
2019-05-26T04:40:02.593Z,13.7
2019-05-26T04:41:03.334Z,13.7
2019-05-26T04:42:02.802Z,13.7
2019-05-26T04:43:03.465Z,13.7
2019-05-26T04:44:03.049Z,13.6
2019-05-26T04:45:02.734Z,13.6
2019-05-26T04:46:03.326Z,13.6
2019-05-26T04:47:03.033Z,13.6
2019-05-26T04:48:03.504Z,13.7
2019-05-26T04:49:02.859Z,13.7
2019-05-26T04:50:02.584Z,13.6
2019-05-26T04:51:03.380Z,13.6
2019-05-26T04:52:03.197Z,13.7
2019-05-26T04:53:07.574Z,13.6
2019-05-26T04:54:03.257Z,13.6
2019-05-26T04:55:03.067Z,13.6
2019-05-26T04:56:02.542Z,13.7
2019-05-26T04:57:03.167Z,13.6
2019-05-26T04:58:03.123Z,13.7
2019-05-26T04:59:02.586Z,13.7
2019-05-26T05:00:03.508Z,13.8
2019-05-26T05:01:02.791Z,13.7
2019-05-26T05:02:02.645Z,13.8
2019-05-26T05:03:03.285Z,13.8
2019-05-26T05:04:02.859Z,13.8
2019-05-26T05:05:03.437Z,13.8
2019-05-26T05:06:03.151Z,13.8
2019-05-26T05:07:03.356Z,13.8
2019-05-26T05:08:03.146Z,13.8
2019-05-26T05:09:02.882Z,13.8
2019-05-26T05:10:03.051Z,13.8
2019-05-26T05:11:02.821Z,13.8
2019-05-26T05:12:02.526Z,13.9
2019-05-26T05:13:02.938Z,13.8
2019-05-26T05:14:02.690Z,13.8
2019-05-26T05:15:02.840Z,13.9
2019-05-26T05:16:02.820Z,13.8
2019-05-26T05:17:03.234Z,13.8
2019-05-26T05:18:03.010Z,13.8
2019-05-26T05:19:02.655Z,13.9
2019-05-26T05:20:03.178Z,13.9
2019-05-26T05:21:02.856Z,13.9
2019-05-26T05:22:02.593Z,13.9
2019-05-26T05:23:03.313Z,13.9
2019-05-26T05:24:03.012Z,13.9
2019-05-26T05:25:02.540Z,13.9
2019-05-26T05:26:03.043Z,13.9
2019-05-26T05:27:02.757Z,13.9
2019-05-26T05:28:03.459Z,13.9
2019-05-26T05:29:03.147Z,13.9
2019-05-26T05:30:03.091Z,13.9
2019-05-26T05:31:03.247Z,14
2019-05-26T05:32:03.073Z,14
2019-05-26T05:33:02.398Z,14
2019-05-26T05:34:03.413Z,14
2019-05-26T05:35:02.819Z,14
2019-05-26T05:36:02.808Z,14.1
2019-05-26T05:37:03.402Z,14.1
2019-05-26T05:38:02.872Z,14.1
2019-05-26T05:39:02.547Z,14.1
2019-05-26T05:40:03.185Z,14.1
2019-05-26T05:41:02.947Z,14.1
2019-05-26T05:42:02.786Z,14.2
2019-05-26T05:43:03.286Z,14.1
2019-05-26T05:44:02.755Z,14.2
2019-05-26T05:45:02.456Z,14.2
2019-05-26T05:46:02.983Z,14.2
2019-05-26T05:47:03.022Z,14.2
2019-05-26T05:48:02.567Z,14.1
2019-05-26T05:49:03.381Z,14.1
2019-05-26T05:50:02.864Z,14.2
2019-05-26T05:51:02.353Z,14.2
2019-05-26T05:52:02.944Z,14.2
2019-05-26T05:53:02.396Z,14.2
2019-05-26T05:54:03.308Z,14.2
2019-05-26T05:55:02.817Z,14.2
2019-05-26T05:56:02.513Z,14.3
2019-05-26T05:57:02.860Z,14.3
2019-05-26T05:58:02.479Z,14.3
2019-05-26T05:59:03.093Z,14.3
2019-05-26T06:00:03.132Z,14.3
2019-05-26T06:01:02.446Z,14.3
2019-05-26T06:02:03.186Z,14.4
2019-05-26T06:03:02.551Z,14.4
2019-05-26T06:04:02.711Z,14.4
2019-05-26T06:05:02.993Z,14.4
2019-05-26T06:06:02.604Z,14.4
2019-05-26T06:07:03.727Z,14.4
2019-05-26T06:08:03.073Z,14.4
2019-05-26T06:09:02.477Z,14.4
2019-05-26T06:10:03.108Z,14.4
2019-05-26T06:11:17.507Z,14.4
2019-05-26T06:12:03.246Z,14.4
2019-05-26T06:13:02.481Z,14.4
2019-05-26T06:14:03.447Z,14.4
2019-05-26T06:15:03.086Z,14.4
2019-05-26T06:16:03.236Z,14.4
2019-05-26T06:17:02.852Z,14.5
2019-05-26T06:18:02.701Z,14.5
2019-05-26T06:19:03.108Z,14.5
2019-05-26T06:20:02.861Z,14.5
2019-05-26T06:21:02.845Z,14.5
2019-05-26T06:22:02.615Z,14.6
2019-05-26T06:23:02.422Z,14.6
2019-05-26T06:24:03.105Z,14.6
2019-05-26T06:25:02.990Z,14.6
2019-05-26T06:26:02.502Z,14.6
2019-05-26T06:27:03.208Z,14.6
2019-05-26T06:28:02.717Z,14.6
2019-05-26T06:29:03.173Z,14.6
2019-05-26T06:30:02.753Z,14.7
2019-05-26T06:31:02.703Z,14.6
2019-05-26T06:32:04.013Z,14.7
2019-05-26T06:33:02.545Z,14.7
2019-05-26T06:34:02.837Z,14.7
2019-05-26T06:35:03.355Z,14.8
2019-05-26T06:36:02.621Z,14.7
2019-05-26T06:37:03.220Z,14.8
2019-05-26T06:38:03.154Z,14.8
2019-05-26T06:39:02.718Z,14.8
2019-05-26T06:40:03.258Z,14.8
2019-05-26T06:41:02.630Z,14.8
2019-05-26T06:42:03.389Z,14.8
2019-05-26T06:43:02.845Z,14.9
2019-05-26T06:44:02.626Z,14.9
2019-05-26T06:45:03.222Z,14.9
2019-05-26T06:46:02.749Z,14.9
2019-05-26T06:47:02.539Z,14.9
2019-05-26T06:48:02.887Z,15
2019-05-26T06:49:02.821Z,15
2019-05-26T06:50:03.042Z,15
2019-05-26T06:51:03.129Z,15.1
2019-05-26T06:52:02.631Z,15.1
2019-05-26T06:53:03.506Z,15.1
2019-05-26T06:54:02.843Z,15.1
2019-05-26T06:55:02.449Z,15.1
2019-05-26T06:56:03.095Z,15.1
2019-05-26T06:57:02.876Z,15.1
2019-05-26T06:58:02.711Z,15.1
2019-05-26T06:59:03.358Z,15.2
2019-05-26T07:00:02.973Z,15.3
2019-05-26T07:01:03.822Z,15.3
2019-05-26T07:02:03.365Z,15.3
2019-05-26T07:03:03.245Z,15.2
2019-05-26T07:04:03.374Z,15.2
2019-05-26T07:05:03.002Z,15.3
2019-05-26T07:06:02.561Z,15.3
2019-05-26T07:07:03.181Z,15.3
2019-05-26T07:08:02.548Z,15.4
2019-05-26T07:09:03.440Z,15.3
2019-05-26T07:10:02.815Z,15.4
2019-05-26T07:11:03.185Z,15.4
2019-05-26T07:12:02.903Z,15.5
2019-05-26T07:13:02.587Z,15.4
2019-05-26T07:14:03.178Z,15.4
2019-05-26T07:15:03.162Z,15.4
2019-05-26T07:16:02.356Z,15.4
2019-05-26T07:17:03.201Z,15.5
2019-05-26T07:18:02.519Z,15.5
2019-05-26T07:19:03.194Z,15.5
2019-05-26T07:20:03.054Z,15.6
2019-05-26T07:21:03.382Z,15.6
2019-05-26T07:22:03.206Z,15.6
2019-05-26T07:23:03.526Z,15.6
2019-05-26T07:24:02.593Z,15.6
2019-05-26T07:25:03.404Z,15.7
2019-05-26T07:26:02.715Z,15.7
2019-05-26T07:27:02.602Z,15.8
2019-05-26T07:28:04.318Z,15.8
2019-05-26T07:29:02.903Z,15.9
2019-05-26T07:30:03.576Z,15.8
2019-05-26T07:31:03.035Z,15.9
2019-05-26T07:32:02.621Z,15.9
2019-05-26T07:33:02.666Z,15.9
2019-05-26T07:34:03.182Z,15.9
2019-05-26T07:35:02.674Z,15.9
2019-05-26T07:36:03.190Z,16
2019-05-26T07:37:02.660Z,16
2019-05-26T07:38:03.337Z,16.1
2019-05-26T07:39:02.864Z,16.1
2019-05-26T07:40:02.871Z,16.1
2019-05-26T07:41:03.561Z,16.1
2019-05-26T07:42:11.449Z,16.1
2019-05-26T07:43:02.546Z,16.1
2019-05-26T07:44:03.144Z,16.1
2019-05-26T07:45:02.881Z,16.1
2019-05-26T07:46:02.661Z,16.1
2019-05-26T07:47:03.047Z,16.1
2019-05-26T07:48:02.910Z,16.3
2019-05-26T07:49:02.372Z,16.2
2019-05-26T07:50:03.560Z,16.1
2019-05-26T07:51:02.742Z,16.2
2019-05-26T07:52:03.143Z,16.2
2019-05-26T07:53:03.156Z,16.3
2019-05-26T07:54:03.445Z,16.3
2019-05-26T07:55:03.665Z,16.3
2019-05-26T07:56:03.230Z,16.4
2019-05-26T07:57:02.763Z,16.3
2019-05-26T07:58:02.696Z,16.5
2019-05-26T07:59:03.219Z,16.7
2019-05-26T08:00:02.878Z,16.7
2019-05-26T08:01:03.340Z,16.7
2019-05-26T08:02:03.024Z,16.8
2019-05-26T08:03:03.438Z,16.7
2019-05-26T08:04:02.940Z,16.8
2019-05-26T08:05:02.934Z,16.8
2019-05-26T08:06:02.666Z,16.8
2019-05-26T08:07:03.116Z,16.8
2019-05-26T08:08:13.826Z,16.9
2019-05-26T08:09:03.215Z,16.9
2019-05-26T08:10:03.184Z,16.9
2019-05-26T08:11:02.631Z,16.9
2019-05-26T08:12:02.953Z,17.1
2019-05-26T08:13:02.881Z,17.3
2019-05-26T08:14:02.643Z,17.5
2019-05-26T08:15:02.691Z,17.6
2019-05-26T08:16:02.633Z,17.6
2019-05-26T08:17:02.612Z,17.6
2019-05-26T08:18:03.203Z,17.7
2019-05-26T08:19:02.763Z,17.9
2019-05-26T08:20:03.406Z,18
2019-05-26T08:21:03.066Z,18.1
2019-05-26T08:22:02.488Z,18.3
2019-05-26T08:23:03.465Z,18.4
2019-05-26T08:24:02.986Z,18.5
2019-05-26T08:25:02.767Z,18.8
2019-05-26T08:26:03.388Z,18.6
2019-05-26T08:27:02.870Z,18.6
2019-05-26T08:28:02.698Z,18.9
2019-05-26T08:29:03.402Z,19.1
2019-05-26T08:30:02.972Z,18.9
2019-05-26T08:31:02.562Z,18.9
2019-05-26T08:32:03.020Z,18.7
2019-05-26T08:33:02.664Z,18.7
2019-05-26T08:34:03.129Z,18.6
2019-05-26T08:35:03.075Z,18.6
2019-05-26T08:36:02.686Z,18.4
2019-05-26T08:37:03.262Z,18.3
2019-05-26T08:38:02.929Z,18.3
2019-05-26T08:39:03.361Z,18.1
2019-05-26T08:40:03.514Z,18.2
2019-05-26T08:41:03.003Z,18.2
2019-05-26T08:42:02.375Z,18.3
2019-05-26T08:43:03.166Z,18.3
2019-05-26T08:44:02.812Z,18.2
2019-05-26T08:45:03.465Z,18.1
2019-05-26T08:46:02.919Z,18.1
2019-05-26T08:47:03.419Z,18.1
2019-05-26T08:48:03.451Z,18.1
2019-05-26T08:49:02.720Z,18.1
2019-05-26T08:50:03.607Z,17.9
2019-05-26T08:51:03.057Z,18.1
2019-05-26T08:52:02.736Z,18
2019-05-26T08:53:03.376Z,18.1
2019-05-26T08:54:02.939Z,17.9
2019-05-26T08:55:02.543Z,18.1
2019-05-26T08:56:03.115Z,18.2
2019-05-26T08:57:02.734Z,18.2
2019-05-26T08:58:03.405Z,18.4
2019-05-26T08:59:02.587Z,18.3
2019-05-26T09:00:02.689Z,18.1
2019-05-26T09:01:03.140Z,17.9
2019-05-26T09:02:02.892Z,18.1
2019-05-26T09:03:02.425Z,18.2
2019-05-26T09:04:03.129Z,18.1
2019-05-26T09:05:02.974Z,18
2019-05-26T09:06:02.532Z,18
2019-05-26T09:07:03.087Z,18.2
2019-05-26T09:08:02.668Z,18.1
2019-05-26T09:09:03.317Z,18.1
2019-05-26T09:10:02.863Z,18.3
2019-05-26T09:11:03.300Z,18.3
2019-05-26T09:12:03.542Z,18.3
2019-05-26T09:13:02.687Z,18.4
2019-05-26T09:14:03.355Z,18.4
2019-05-26T09:15:03.168Z,18.4
2019-05-26T09:16:02.469Z,18.3
2019-05-26T09:17:03.148Z,18.3
2019-05-26T09:18:03.381Z,18.2
2019-05-26T09:19:02.553Z,18.4
2019-05-26T09:20:03.003Z,18.7
2019-05-26T09:21:02.689Z,18.4
2019-05-26T09:22:03.044Z,18.6
2019-05-26T09:23:02.918Z,18.5
2019-05-26T09:24:03.459Z,18.6
2019-05-26T09:25:03.203Z,18.4
2019-05-26T09:26:02.706Z,18.7
2019-05-26T09:27:03.405Z,19.1
2019-05-26T09:28:02.719Z,19.3
2019-05-26T09:29:03.115Z,19.8
2019-05-26T09:30:03.039Z,19.9
2019-05-26T09:31:02.592Z,19.7
2019-05-26T09:32:03.341Z,19.6
2019-05-26T09:33:02.364Z,19.7
2019-05-26T09:34:02.700Z,19.5
2019-05-26T09:35:02.849Z,19.3
2019-05-26T09:36:03.334Z,19.4
2019-05-26T09:37:02.923Z,19.8
2019-05-26T09:38:02.700Z,20.1
2019-05-26T09:39:03.309Z,20
2019-05-26T09:40:02.864Z,20.1
2019-05-26T09:41:03.556Z,20.1
2019-05-26T09:42:02.912Z,20.3
2019-05-26T09:43:16.935Z,20.3
2019-05-26T09:44:03.246Z,20.4
2019-05-26T09:45:02.913Z,20.7
2019-05-26T09:46:03.449Z,20.8
2019-05-26T09:47:03.061Z,20.9
2019-05-26T09:48:03.428Z,20.8
2019-05-26T09:49:02.935Z,20.7
2019-05-26T09:50:03.124Z,20.6
2019-05-26T09:51:02.501Z,20.6
2019-05-26T09:52:03.187Z,20.8
2019-05-26T09:53:02.879Z,20.9
2019-05-26T09:54:03.491Z,20.6
2019-05-26T09:55:03.058Z,20.9
2019-05-26T09:56:02.818Z,21.1
2019-05-26T09:57:02.524Z,21.1
2019-05-26T09:58:02.948Z,20.9
2019-05-26T09:59:02.483Z,20.8
2019-05-26T10:00:03.094Z,20.8
2019-05-26T10:01:02.740Z,20.9
2019-05-26T10:02:03.353Z,20.7
2019-05-26T10:03:03.098Z,20.8
2019-05-26T10:04:02.568Z,20.6
2019-05-26T10:05:03.303Z,20.5
2019-05-26T10:06:02.490Z,20.5
2019-05-26T10:07:03.267Z,20.6
2019-05-26T10:08:02.686Z,20.6
2019-05-26T10:09:03.545Z,20.8
2019-05-26T10:10:03.344Z,21
2019-05-26T10:11:02.580Z,21.1
2019-05-26T10:12:03.109Z,21.4
2019-05-26T10:13:02.840Z,21.6
2019-05-26T10:14:03.256Z,21.7
2019-05-26T10:15:03.146Z,21.4
2019-05-26T10:16:03.511Z,21.5
2019-05-26T10:17:03.234Z,21.6
2019-05-26T10:18:02.767Z,21.7
2019-05-26T10:19:03.465Z,21.4
2019-05-26T10:20:02.889Z,21.2
2019-05-26T10:21:02.436Z,21.3
2019-05-26T10:22:03.281Z,20.8
2019-05-26T10:23:02.733Z,20.9
2019-05-26T10:24:03.524Z,21
2019-05-26T10:25:03.090Z,21.3
2019-05-26T10:26:02.536Z,21.5
2019-05-26T10:27:02.575Z,21.7
2019-05-26T10:28:03.379Z,21.6
2019-05-26T10:29:02.734Z,21.4
2019-05-26T10:30:03.367Z,21.5
2019-05-26T10:31:02.790Z,21.5
2019-05-26T10:32:03.451Z,21.2
2019-05-26T10:33:03.170Z,21
2019-05-26T10:34:02.975Z,21.4
2019-05-26T10:35:03.382Z,21.8
2019-05-26T10:36:02.840Z,21.9
2019-05-26T10:37:03.422Z,21.9
2019-05-26T10:38:03.002Z,21.8
2019-05-26T10:39:03.566Z,22.2
2019-05-26T10:40:03.496Z,22.3
2019-05-26T10:41:02.731Z,21.9
2019-05-26T10:42:02.568Z,22
2019-05-26T10:43:03.177Z,22.1
2019-05-26T10:44:02.614Z,22.1
2019-05-26T10:45:03.563Z,22.3
2019-05-26T10:46:03.340Z,22.1
2019-05-26T10:47:02.915Z,21.9
2019-05-26T10:48:02.636Z,22.1
2019-05-26T10:49:03.197Z,21.8
2019-05-26T10:50:03.012Z,21.8
2019-05-26T10:51:07.032Z,21.9
2019-05-26T10:52:03.072Z,22.3
2019-05-26T10:53:02.604Z,22.2
2019-05-26T10:54:02.511Z,22.4
2019-05-26T10:55:02.922Z,22.4
2019-05-26T10:56:02.876Z,22.6
2019-05-26T10:57:03.302Z,22.7
2019-05-26T10:58:03.349Z,22.5
2019-05-26T10:59:02.806Z,22.5
2019-05-26T11:00:03.535Z,22.1
2019-05-26T11:01:02.835Z,22.5
2019-05-26T11:02:03.354Z,22.7
2019-05-26T11:03:04.243Z,22.9
2019-05-26T11:04:03.399Z,23.1
2019-05-26T11:05:02.725Z,22.8
2019-05-26T11:06:02.662Z,22.6
2019-05-26T11:07:02.568Z,22.4
2019-05-26T11:08:02.385Z,22.2
2019-05-26T11:09:03.459Z,22.1
2019-05-26T11:10:03.019Z,21.8
2019-05-26T11:11:02.652Z,21.7
2019-05-26T11:12:03.074Z,21.7
2019-05-26T11:13:03.463Z,21.6
2019-05-26T11:14:03.936Z,21.8
2019-05-26T11:15:03.416Z,21.8
2019-05-26T11:16:03.049Z,21.6
2019-05-26T11:17:02.668Z,21.4
2019-05-26T11:18:03.292Z,21.6
2019-05-26T11:19:02.962Z,22.1
2019-05-26T11:20:02.758Z,22.4
2019-05-26T11:21:03.056Z,22.5
2019-05-26T11:22:02.873Z,22.6
2019-05-26T11:23:02.570Z,22.2
2019-05-26T11:24:03.507Z,22.4
2019-05-26T11:25:03.189Z,22.1
2019-05-26T11:26:02.578Z,22
2019-05-26T11:27:13.481Z,22.1
2019-05-26T11:28:02.664Z,22.1
2019-05-26T11:29:03.294Z,22.3
2019-05-26T11:30:02.935Z,22.6
2019-05-26T11:31:03.315Z,22.4
2019-05-26T11:32:02.867Z,22.4
2019-05-26T11:33:03.406Z,22.4
2019-05-26T11:34:02.944Z,22.5
2019-05-26T11:35:02.657Z,22.8
2019-05-26T11:36:03.248Z,23.1
2019-05-26T11:37:02.669Z,22.9
2019-05-26T11:38:03.391Z,23.2
2019-05-26T11:39:02.967Z,23.3
2019-05-26T11:40:03.517Z,23.3
2019-05-26T11:41:03.140Z,23.4
2019-05-26T11:42:14.513Z,23.2
2019-05-26T11:43:17.680Z,23.1
2019-05-26T11:44:18.644Z,22.8
2019-05-26T11:45:02.674Z,23.3
2019-05-26T11:46:03.246Z,23.5
2019-05-26T11:47:02.781Z,23.4
2019-05-26T11:48:03.462Z,23
2019-05-26T11:49:02.721Z,22.8
2019-05-26T11:50:02.537Z,22.3
2019-05-26T11:51:03.205Z,21.8
2019-05-26T11:52:02.771Z,21.8
2019-05-26T11:53:03.309Z,21.7
2019-05-26T11:54:03.054Z,21.8
2019-05-26T11:55:02.707Z,22.2
2019-05-26T11:56:03.414Z,22.5
2019-05-26T11:57:02.895Z,22.4
2019-05-26T11:58:03.461Z,21.9
2019-05-26T11:59:03.141Z,21.8
2019-05-26T12:00:03.640Z,21.7
2019-05-26T12:01:02.669Z,21.6
2019-05-26T12:02:03.279Z,21.3
2019-05-26T12:03:03.104Z,21.3
2019-05-26T12:04:02.537Z,21.1
2019-05-26T12:05:02.934Z,20.9
2019-05-26T12:06:02.905Z,20.8
2019-05-26T12:07:04.809Z,20.6
2019-05-26T12:08:03.125Z,20.6
2019-05-26T12:09:02.959Z,20.6
2019-05-26T12:10:03.540Z,20.5
2019-05-26T12:11:03.131Z,20.5
2019-05-26T12:12:02.732Z,20.5
2019-05-26T12:13:03.105Z,20.4
2019-05-26T12:14:03.186Z,20.3
2019-05-26T12:15:02.605Z,20.4
2019-05-26T12:16:03.117Z,20.3
2019-05-26T12:17:02.875Z,20.2
2019-05-26T12:18:02.812Z,20.2
2019-05-26T12:19:02.470Z,20.3
2019-05-26T12:20:05.921Z,20.3
2019-05-26T12:21:03.518Z,20.3
2019-05-26T12:22:03.052Z,20.3
2019-05-26T12:23:03.415Z,20.1
2019-05-26T12:24:02.921Z,20.2
2019-05-26T12:25:02.569Z,20.4
2019-05-26T12:26:03.308Z,20.9
2019-05-26T12:27:02.907Z,21
2019-05-26T12:28:03.247Z,20.9
2019-05-26T12:29:02.795Z,20.6
2019-05-26T12:30:03.335Z,20.4
2019-05-26T12:31:03.214Z,20.4
2019-05-26T12:32:02.888Z,20.5
2019-05-26T12:33:02.547Z,20.6
2019-05-26T12:34:03.107Z,20.6
2019-05-26T12:35:02.606Z,20.6
2019-05-26T12:36:03.245Z,20.4
2019-05-26T12:37:02.872Z,20.6
2019-05-26T12:38:02.596Z,20.8
2019-05-26T12:39:03.143Z,20.7
2019-05-26T12:40:02.879Z,20.8
2019-05-26T12:41:03.080Z,20.7
2019-05-26T12:42:02.461Z,20.8
2019-05-26T12:43:03.311Z,21.3
2019-05-26T12:44:02.967Z,21.7
2019-05-26T12:45:03.390Z,21.9
2019-05-26T12:46:02.667Z,21.9
2019-05-26T12:47:03.346Z,22
2019-05-26T12:48:02.998Z,22.2
2019-05-26T12:49:02.682Z,22.3
2019-05-26T12:50:03.546Z,22.2
2019-05-26T12:51:02.965Z,22.3
2019-05-26T12:52:02.558Z,22.3
2019-05-26T12:53:03.061Z,22.3
2019-05-26T12:54:03.503Z,22.3
2019-05-26T12:55:03.239Z,22.6
2019-05-26T12:56:03.034Z,22.6
2019-05-26T12:57:03.291Z,22.7
2019-05-26T12:58:03.167Z,22.6
2019-05-26T12:59:02.835Z,22.6
2019-05-26T13:00:03.059Z,22.6
2019-05-26T13:01:02.794Z,22.6
2019-05-26T13:02:02.423Z,22.8
2019-05-26T13:03:03.576Z,22.8
2019-05-26T13:04:02.966Z,22.9
2019-05-26T13:05:03.424Z,22.7
2019-05-26T13:06:03.107Z,22.8
2019-05-26T13:07:03.025Z,22.8
2019-05-26T13:08:02.638Z,22.5
2019-05-26T13:09:03.224Z,22.5
2019-05-26T13:10:02.902Z,22.6
2019-05-26T13:11:02.558Z,22.9
2019-05-26T13:12:03.083Z,22.9
2019-05-26T13:13:02.476Z,23.1
2019-05-26T13:14:03.420Z,23.1
2019-05-26T13:15:06.716Z,23
2019-05-26T13:16:02.708Z,22.8
2019-05-26T13:17:03.542Z,22.7
2019-05-26T13:18:02.635Z,22.7
2019-05-26T13:19:03.215Z,22.6
2019-05-26T13:20:03.129Z,22.8